16 de agosto de 2022

Hora Código Clima Temp. Visibilidade Tecto Vento METAR/SPECI
15:00
V
27 °C 10 km+ 5.200 ft 270° 270° 10 kt METAR LFBD 161300Z AUTO 27010KT 220V330 9999 FEW045 BKN052 27/17 Q1008 TEMPO 4000 SHRA BKN040TCU
14:30
V
27 °C 10 km+ - 270° 270° 7 kt METAR LFBD 161230Z AUTO 27007KT 220V330 9999 SCT046 SCT052 27/15 Q1008 TEMPO 4000 SHRA BKN040TCU
14:00
V
26 °C 10 km+ 14.000 ft 280° 280° 5 kt METAR LFBD 161200Z AUTO 28005KT 250V340 9999 SCT042 SCT048 BKN140 26/16 Q1007 TEMPO 2000 TSRA BKN030CB
13:30
V
25 °C 10 km+ - 300° 300° 4 kt METAR LFBD 161130Z AUTO 30004KT 250V060 CAVOK 25/16 Q1007 TEMPO 4000 SHRA BKN040TCU
13:00
V
25 °C 10 km+ - Var Var 2 kt METAR LFBD 161100Z AUTO VRB02KT CAVOK 25/16 Q1008 TEMPO 4000 SHRA BKN040TCU
12:30
V
24 °C 10 km+ - Var Var 1 kt METAR LFBD 161030Z AUTO VRB01KT CAVOK 24/16 Q1008 TEMPO 4000 SHRA BKN040TCU
12:00
V
23 °C 10 km+ - Var 000° 0 kt METAR LFBD 161000Z AUTO 00000KT CAVOK 23/16 Q1008 TEMPO 4000 SHRA BKN040TCU
11:30
V
23 °C 10 km+ - Var Var 2 kt METAR LFBD 160930Z AUTO VRB02KT CAVOK 23/17 Q1007 TEMPO 4000 SHRA BKN040TCU
11:00
V
21 °C 10 km+ - 020° 020° 3 kt METAR LFBD 160900Z AUTO 02003KT 360V100 CAVOK 21/17 Q1007 TEMPO 2000 TSRA BKN030CB
10:30
V
21 °C 10 km+ - 010° 010° 3 kt METAR LFBD 160830Z AUTO 01003KT 330V070 CAVOK 21/17 Q1007 TEMPO 2000 TSRA BKN030CB
10:00
V
21 °C 10 km+ - 330° 330° 3 kt METAR LFBD 160800Z AUTO 33003KT 280V080 CAVOK 21/17 Q1007 TEMPO 2000 TSRA BKN030CB
09:30
V
20 °C 10 km+ - Var Var 3 kt METAR LFBD 160730Z AUTO VRB03KT CAVOK 20/17 Q1007 TEMPO 2000 TSRA BKN030CB
09:00
V
19 °C 9 km - 030° 030° 4 kt METAR LFBD 160700Z AUTO 03004KT 330V080 9000 NSC 19/17 Q1007 TEMPO 2000 TSRA BKN030CB
08:30
M
19 °C 7 km - 010° 010° 3 kt METAR LFBD 160630Z AUTO 01003KT 350V050 7000 NSC 19/18 Q1007 TEMPO 2000 TSRA BKN030CB
08:00
M
19 °C 7 km - Var Var 3 kt METAR LFBD 160600Z AUTO VRB03KT 7000 NSC 19/18 Q1007 TEMPO 2000 TSRA BKN030CB
07:30
V
19 °C 8 km - 080° 080° 2 kt METAR LFBD 160530Z AUTO 08002KT 8000 NSC 19/18 Q1007 TEMPO 2000 TSRA BKN030CB
07:00
M
19 °C 7 km - 120° 120° 3 kt METAR LFBD 160500Z AUTO 12003KT 7000 ///TCU 19/18 Q1007 TEMPO 2000 TSRA BKN030CB
06:30
V
19 °C 9 km - 110° 110° 4 kt METAR LFBD 160430Z AUTO 11004KT 9000 NSC 19/18 Q1007 TEMPO 2000 TSRA BKN030CB
06:00
V
18 °C 9 km - 130° 130° 2 kt METAR LFBD 160400Z AUTO 13002KT 9000 NSC 18/17 Q1007 TEMPO 2000 TSRA BKN030CB
05:30
V
18 °C 10 km+ - 140° 140° 2 kt METAR LFBD 160330Z AUTO 14002KT CAVOK 18/17 Q1007 TEMPO 2000 TSRA BKN030CB
05:00
I
18 °C 2,6 km - 090° 090° 2 kt METAR LFBD 160300Z AUTO 09002KT 8000 2600 R05/1000U NSC 18/17 Q1007 TEMPO 2000 TSRA BKN030CB
04:30
L
18 °C 600 m - Var 000° 0 kt METAR LFBD 160230Z AUTO 00000KT 9000 0600 R23/P2300 R05/0750D R29/P2300 BCFG NSC 18/17 Q1008 TEMPO 2000 TSRA BKN030CB
04:00
V
18 °C 8 km - Var Var 1 kt METAR LFBD 160200Z AUTO VRB01KT 8000 NSC 18/17 Q1008 NOSIG
03:30
I
18 °C 2,7 km - 120° 120° 3 kt METAR LFBD 160130Z AUTO 12003KT 9999 2700 NSC 18/17 Q1008 NOSIG
03:00
I
18 °C 1,5 km - Var 000° 0 kt METAR LFBD 160100Z AUTO 00000KT 8000 1500 R05/1100U NSC 18/17 Q1009 TEMPO 1200 BCFG
02:30
I
18 °C 1,5 km - Var 000° 0 kt METAR LFBD 160030Z AUTO 00000KT 8000 1500 R05/1400N NSC 18/17 Q1009 TEMPO 1200 BCFG
02:00
L
18 °C 1,4 km - Var 000° 0 kt METAR LFBD 160000Z AUTO 00000KT 9000 1400 R23/P2300 R05/1900D R29/P2300 NSC 18/17 Q1009 TEMPO 1200 BCFG
01:30
I
19 °C 1,9 km - 250° 250° 2 kt METAR LFBD 152330Z AUTO 25002KT 8000 1900 NSC 19/17 Q1009 TEMPO 1200 BCFG
01:00
I
19 °C 3,6 km - Var 000° 0 kt METAR LFBD 152300Z AUTO 00000KT 9000 3600 NSC 19/17 Q1009 NOSIG
00:30
V
20 °C 10 km+ - 260° 260° 2 kt METAR LFBD 152230Z AUTO 26002KT CAVOK 20/18 Q1009 NOSIG
00:00
V
20 °C 10 km+ - 270° 270° 2 kt METAR LFBD 152200Z AUTO 27002KT CAVOK 20/18 Q1009 NOSIG

15 de agosto de 2022

Hora Código Clima Temp. Visibilidade Tecto Vento METAR/SPECI
23:30
V
20 °C 10 km+ - 260° 260° 3 kt METAR LFBD 152130Z AUTO 26003KT CAVOK 20/18 Q1010 NOSIG
23:00
V
20 °C 10 km+ - 220° 220° 2 kt METAR LFBD 152100Z AUTO 22002KT CAVOK 20/17 Q1010 NOSIG
22:30
V
21 °C 10 km+ - Var Var 3 kt METAR LFBD 152030Z AUTO VRB03KT CAVOK 21/17 Q1010 NOSIG
22:00
V
21 °C 10 km+ - 230° 230° 3 kt METAR LFBD 152000Z AUTO 23003KT CAVOK 21/16 Q1009 NOSIG
21:30
V
22 °C 10 km+ - 250° 250° 6 kt METAR LFBD 151930Z AUTO 25006KT CAVOK 22/16 Q1009 NOSIG
21:00
V
23 °C 10 km+ - 260° 260° 6 kt METAR LFBD 151900Z AUTO 26006KT CAVOK 23/16 Q1009 NOSIG
20:30
V
23 °C 10 km+ - 280° 280° 8 kt METAR LFBD 151830Z AUTO 28008KT CAVOK 23/16 Q1009 NOSIG
20:00
V
24 °C 10 km+ - 280° 280° 9 kt METAR LFBD 151800Z AUTO 28009KT CAVOK 24/16 Q1009 NOSIG
19:30
V
25 °C 10 km+ - 270° 270° 8 kt METAR LFBD 151730Z AUTO 27008KT 240V300 CAVOK 25/16 Q1009 NOSIG
19:00
V
25 °C 10 km+ - 270° 270° 10 kt METAR LFBD 151700Z AUTO 27010KT 230V290 CAVOK 25/16 Q1009 NOSIG
18:30
V
24 °C 10 km+ - 260° 260° 10 kt METAR LFBD 151630Z AUTO 26010KT 230V290 CAVOK 24/15 Q1009 NOSIG
18:00
V
25 °C 10 km+ - 270° 270° 14 kt METAR LFBD 151600Z AUTO 27014KT 9999 FEW036 25/15 Q1009 NOSIG
17:30
V
26 °C 10 km+ - 250° 250° 14 kt METAR LFBD 151530Z AUTO 25014KT 220V280 CAVOK 26/16 Q1009 NOSIG
17:00
V
26 °C 10 km+ - 260° 260° 14 kt METAR LFBD 151500Z AUTO 26014KT CAVOK 26/16 Q1009 TEMPO 25015G25KT
16:30
V
25 °C 10 km+ - 260° 260° 17 kt METAR LFBD 151430Z AUTO 26017KT 9999 FEW037 SCT066 25/16 Q1010 TEMPO 25015G25KT
16:00
V
26 °C 10 km+ - 260° 260° 13 kt METAR LFBD 151400Z AUTO 26013KT 240V300 CAVOK 26/14 Q1009 TEMPO 25015G25KT
15:30
V
27 °C 10 km+ - 260° 260° 12 kt METAR LFBD 151330Z AUTO 26012KT 230V300 CAVOK 27/14 Q1009 TEMPO 25015G25KT
15:00
V
26 °C 10 km+ - 260° 260° 12 kt METAR LFBD 151300Z AUTO 26012KT CAVOK 26/14 Q1010 TEMPO 25015G25KT
14:30
V
26 °C 10 km+ 6.800 ft 250° 250° 13 kt METAR LFBD 151230Z AUTO 25013KT 9999 SCT046 SCT058 BKN068 26/14 Q1010 TEMPO 25015G25KT
14:00
V
26 °C 10 km+ 4.300 ft 240° 240° 12 kt METAR LFBD 151200Z AUTO 24012KT 200V270 9999 BKN043 BKN058 BKN070 26/14 Q1010 TEMPO 25015G25KT
13:30
V
25 °C 10 km+ 4.700 ft 270° 270° 12 kt METAR LFBD 151130Z AUTO 27012KT 240V300 9999 FEW041 BKN047 BKN056 25/15 Q1010 TEMPO 25015G25KT
13:00
V
25 °C 10 km+ 4.800 ft 280° 280° 13 kt METAR LFBD 151100Z AUTO 28013KT 9999 FEW040 BKN048 BKN056 25/15 Q1010 NOSIG
12:30
V
25 °C 10 km+ 5.400 ft 250° 250° 12 kt METAR LFBD 151030Z AUTO 25012KT 220V290 9999 SCT043 BKN054 BKN066 25/15 Q1010 NOSIG
12:00
V
25 °C 10 km+ 4.400 ft 260° 260° 11 kt METAR LFBD 151000Z AUTO 26011KT 230V290 9999 SCT037 BKN044 BKN052 25/15 Q1010 NOSIG
11:30
V
24 °C 10 km+ 4.300 ft 260° 260° 11 kt METAR LFBD 150930Z AUTO 26011KT 9999 SCT035 BKN043 BKN056 24/16 Q1010 NOSIG
11:00
V
24 °C 10 km+ 3.300 ft 260° 260° 10 kt METAR LFBD 150900Z AUTO 26010KT 210V290 9999 BKN033 BKN042 BKN052 24/15 Q1010 NOSIG
10:30
M
23 °C 10 km+ 2.500 ft 230° 230° 11 kt METAR LFBD 150830Z AUTO 23011KT 200V260 9999 BKN025 BKN031 BKN038 23/16 Q1010 NOSIG
10:00
V
22 °C 10 km+ - 210° 210° 6 kt METAR LFBD 150800Z AUTO 21006KT 160V250 9999 FEW021 22/18 Q1010 NOSIG
09:30
V
21 °C 10 km+ - 190° 190° 4 kt METAR LFBD 150730Z AUTO 19004KT 170V230 CAVOK 21/18 Q1010 NOSIG
09:00
V
20 °C 10 km+ - 200° 200° 4 kt METAR LFBD 150700Z AUTO 20004KT CAVOK 20/18 Q1010 TEMPO 4000 -SHRA SCT020TCU
08:30
V
18 °C 10 km+ - 190° 190° 5 kt METAR LFBD 150630Z AUTO 19005KT CAVOK 18/17 Q1010 TEMPO 4000 -SHRA SCT020TCU BECMG 25010KT
08:00
V
18 °C 10 km+ - 200° 200° 4 kt METAR LFBD 150600Z AUTO 20004KT 9999 SCT049 18/17 Q1010 TEMPO 4000 -SHRA SCT020TCU
07:30
V
18 °C 9 km 4.700 ft 200° 200° 5 kt METAR LFBD 150530Z AUTO 20005KT 9000 BKN047 18/17 Q1010 NOSIG
07:00
V
18 °C 10 km+ - 180° 180° 5 kt METAR LFBD 150500Z AUTO 18005KT CAVOK 18/17 Q1009 TEMPO 4000 -SHRA BKN020TCU
06:30
V
18 °C 10 km+ - 200° 200° 5 kt METAR LFBD 150430Z AUTO 20005KT 9999 FEW018 18/17 Q1009 TEMPO 4000 -SHRA BKN020TCU
06:00
V
17 °C 10 km+ 3.900 ft 190° 190° 5 kt METAR LFBD 150400Z AUTO 19005KT 9999 FEW021 BKN039 BKN046 17/16 Q1010 TEMPO 4000 -SHRA BKN020TCU
05:30
V
17 °C 10 km+ - 180° 180° 4 kt METAR LFBD 150330Z AUTO 18004KT 9999 FEW044 17/16 Q1010 TEMPO 4000 -SHRA BKN020TCU
05:00
V
17 °C 10 km+ - 170° 170° 6 kt METAR LFBD 150300Z AUTO 17006KT 9999 FEW017/// //////TCU 17/16 Q1010 TEMPO 4000 -SHRA BECMG 23010KT
04:30
V
17 °C 10 km+ - 180° 180° 7 kt METAR LFBD 150230Z AUTO 18007KT CAVOK 17/16 Q1010 TEMPO 4000 -SHRA BKN020TCU
04:00
V
17 °C 10 km+ - 170° 170° 4 kt METAR LFBD 150200Z AUTO 17004KT CAVOK 17/16 Q1010 TEMPO 4000 -SHRA BKN020TCU BECMG 23010KT
03:30
V
17 °C 10 km+ - 170° 170° 5 kt METAR LFBD 150130Z AUTO 17005KT 9999 SCT024 17/16 Q1010 TEMPO 4000 -SHRA BKN020TCU BECMG 23010KT
03:00
V
18 °C 10 km+ - 180° 180° 5 kt METAR LFBD 150100Z AUTO 18005KT 9999 FEW025 18/16 Q1010 TEMPO 4000 -SHRA BKN020TCU
02:30
V
18 °C 10 km+ 5.000 ft 190° 190° 5 kt METAR LFBD 150030Z AUTO 19005KT 9999 SCT021 SCT028 BKN050 18/16 Q1010 TEMPO 4000 -SHRA BKN020TCU
02:00
V
18 °C 10 km+ 4.700 ft 190° 190° 6 kt METAR LFBD 150000Z AUTO 19006KT 9999 FEW024 SCT032 BKN047 18/16 Q1010 NOSIG
01:30
V
18 °C 10 km+ 19.000 ft 190° 190° 4 kt METAR LFBD 142330Z AUTO 19004KT 9999 SCT048 BKN190 18/17 Q1010 NOSIG
01:00
V
19 °C 10 km+ - 190° 190° 3 kt METAR LFBD 142300Z AUTO 19003KT CAVOK 19/17 Q1011 BECMG 25010KT
00:30
V
19 °C 10 km+ 4.100 ft 190° 190° 4 kt METAR LFBD 142230Z AUTO 19004KT 9999 FEW024 BKN041 BKN230 19/17 Q1011 BECMG 25010KT
00:00
V
19 °C 10 km+ 21.000 ft 200° 200° 4 kt METAR LFBD 142200Z AUTO 20004KT 9999 FEW022 BKN210 OVC230 19/16 Q1011 NOSIG

14 de agosto de 2022

Hora Código Clima Temp. Visibilidade Tecto Vento METAR/SPECI
23:30
V
19 °C 10 km+ - 200° 200° 4 kt METAR LFBD 142130Z AUTO 20004KT 9999 FEW025 SCT230 19/16 Q1011 NOSIG
23:00
V
19 °C 10 km+ - 210° 210° 4 kt METAR LFBD 142100Z AUTO 21004KT 9999 FEW027 19/16 Q1011 NOSIG
22:30
V
20 °C 10 km+ - 230° 230° 4 kt METAR LFBD 142030Z AUTO 23004KT 9999 SCT023 20/16 Q1011 NOSIG
22:00
V
21 °C 10 km+ - 250° 250° 6 kt METAR LFBD 142000Z AUTO 25006KT CAVOK 21/16 Q1011 NOSIG
21:30
V
21 °C 10 km+ - 260° 260° 6 kt METAR LFBD 141930Z AUTO 26006KT CAVOK 21/16 Q1010 NOSIG
21:00
V
22 °C 10 km+ - 260° 260° 8 kt METAR LFBD 141900Z AUTO 26008KT CAVOK 22/15 Q1010 NOSIG
20:30
V
23 °C 10 km+ - 260° 260° 10 kt METAR LFBD 141830Z AUTO 26010KT CAVOK 23/15 Q1010 NOSIG
20:00
V
24 °C 10 km+ - 250° 250° 10 kt METAR LFBD 141800Z AUTO 25010KT 9999 FEW037 24/15 Q1010 NOSIG
19:30
V
24 °C 10 km+ 4.600 ft 260° 260° 12 kt METAR LFBD 141730Z AUTO 26012KT 9999 SCT039 BKN046 24/15 Q1010 NOSIG
19:00
V
24 °C 10 km+ 4.000 ft 260° 260° 11 kt METAR LFBD 141700Z AUTO 26011KT 230V290 9999 BKN040 24/15 Q1010 NOSIG
18:30
V
25 °C 10 km+ 4.100 ft 260° 260° 11 kt METAR LFBD 141630Z AUTO 26011KT 9999 BKN041 25/15 Q1010 NOSIG
18:00
V
25 °C 10 km+ - 270° 270° 12 kt METAR LFBD 141600Z AUTO 27012KT 240V300 9999 SCT044 25/15 Q1010 NOSIG
17:30
V
26 °C 10 km+ - 260° 260° 12 kt METAR LFBD 141530Z AUTO 26012KT 9999 SCT043 26/14 Q1010 NOSIG
17:00
V
26 °C 10 km+ - 260° 260° 15 kt METAR LFBD 141500Z AUTO 26015KT 9999 SCT043 SCT050 26/15 Q1010 NOSIG
16:30
V
26 °C 10 km+ 4.800 ft 240° 240° 16 kt METAR LFBD 141430Z AUTO 24016KT 210V270 9999 SCT042 BKN048 26/16 Q1010 NOSIG
16:00
V
25 °C 10 km+ 4.800 ft 230° 230° 10 kt METAR LFBD 141400Z AUTO 23010KT 200V270 9999 FEW038 BKN048 BKN096 25/16 Q1010 NOSIG
15:30
V
25 °C 10 km+ 5.800 ft 270° 270° 8 kt METAR LFBD 141330Z AUTO 27008KT 230V330 9999 FEW034 SCT046 BKN058 25/16 Q1011 NOSIG
15:00
V
24 °C 10 km+ 4.700 ft 260° 260° 11 kt METAR LFBD 141300Z AUTO 26011KT 9999 FEW036 BKN047 OVC056 24/16 Q1011 NOSIG
Dados mais antigos

Nós e terceiros acompanhamos seu comportamento na internet em nosso site com cookies. Se você continuar, nós assumimos que você concorda com nossa política de cookies. Saiba mais